»·PEaware :: SKY74 S59-KSZT

SKY74 :: S59-KSZT

FLIGHT INFORMATION

Flight Status: Arrived
Operator:
Sky High Charters
More flights by this operator :: More flights under this callsign
Pilot: Charles C. (26995)
Aircraft: MCDONNELL-DOUGLAS SKYTRAIN C-47
(DC3)
More flights by this aircraft type
Origin: S59 Libby
United States
Destination: KSZT Sandpoint
United States
More flights between these airports :: More routes between these airports
Route: EYES1 EYES V448 CLASS
File this flight plan on PilotEdge
Remarks:
Altitude:
(Current/Filed)
12,000ft
Speed:
(Current/Filed)
150kts
Departed: 28-Aug-20 07:22 AM
Arrived: 28-Aug-20 08:03 AM
Distance/Time
Traveled:
43nm/0:41
Distance/Time
To Go:
Arrived

Flight Plot

Page will automatically refresh every two minutes.

Flight plan parsing failed; only flown route is shown


Map Options




Map Legend


Flown Route
Filed Route
Departure Airport
Arrival Airport
Navaid (VOR, NDB)
Fix

Horizontal Profiles

Position Reports

Time Latitude Longitude Heading Altitude Ground
Speed
28-Aug-20 07:14 48.285902 -115.489464 254 2599ft 0kts
28-Aug-20 07:15 48.285902 -115.489464 254 2599ft 0kts
28-Aug-20 07:16 48.285902 -115.489464 254 2599ft 0kts
28-Aug-20 07:17 48.287026 -115.490225 346 2595ft 20kts
28-Aug-20 07:18 48.290589 -115.491882 252 2587ft 0kts
28-Aug-20 07:19 48.290555 -115.492031 252 2587ft 1kts
28-Aug-20 07:20 48.290490 -115.492325 251 2587ft 7kts
28-Aug-20 07:21 48.273166 -115.486215 168 2933ft 106kts
28-Aug-20 07:22 48.244054 -115.497395 180 3757ft 104kts
28-Aug-20 07:23 48.214499 -115.488076 173 4395ft 111kts
28-Aug-20 07:24 48.185015 -115.473551 159 5167ft 113kts
28-Aug-20 07:25 48.155240 -115.455866 160 5994ft 113kts
28-Aug-20 07:26 48.125648 -115.440625 161 6789ft 113kts
28-Aug-20 07:27 48.095554 -115.425375 161 7611ft 115kts
28-Aug-20 07:28 48.065808 -115.410338 161 8460ft 112kts
28-Aug-20 07:29 48.036234 -115.395408 161 9219ft 116kts
28-Aug-20 07:30 48.004421 -115.378849 153 9916ft 123kts
28-Aug-20 07:31 47.984043 -115.409186 260 10607ft 123kts
28-Aug-20 07:32 47.984390 -115.460153 260 11296ft 124kts
28-Aug-20 07:33 47.976251 -115.510148 256 11977ft 124kts
28-Aug-20 07:34 47.965558 -115.568409 256 12014ft 162kts
28-Aug-20 07:35 47.953173 -115.635184 256 12010ft 170kts
28-Aug-20 07:36 47.940288 -115.704394 256 12010ft 172kts
28-Aug-20 07:37 47.927421 -115.773230 255 12009ft 172kts
28-Aug-20 07:38 47.914558 -115.841832 255 12009ft 171kts
28-Aug-20 07:39 47.901748 -115.909747 254 12008ft 169kts
28-Aug-20 07:40 47.888266 -115.976769 253 12008ft 167kts
28-Aug-20 07:41 47.875285 -116.043390 254 12008ft 166kts
28-Aug-20 07:42 47.862893 -116.108042 254 12003ft 158kts
28-Aug-20 07:43 47.864626 -116.171435 285 11747ft 162kts
28-Aug-20 07:44 47.881187 -116.238126 293 10597ft 183kts
28-Aug-20 07:45 47.901448 -116.311161 293 9218ft 196kts
28-Aug-20 07:46 47.921086 -116.383191 292 8496ft 174kts
28-Aug-20 07:47 47.937458 -116.443490 292 8468ft 144kts
28-Aug-20 07:48 47.952252 -116.496866 302 8449ft 137kts
28-Aug-20 07:49 47.974913 -116.548916 304 7831ft 155kts
28-Aug-20 07:50 47.998996 -116.603794 304 7220ft 157kts
28-Aug-20 07:51 48.024267 -116.652659 280 6907ft 147kts
28-Aug-20 07:52 48.041023 -116.702066 319 6901ft 129kts
28-Aug-20 07:53 48.060067 -116.745252 303 6918ft 124kts
28-Aug-20 07:54 48.086372 -116.765827 29 6662ft 123kts
28-Aug-20 07:55 48.113976 -116.734146 37 6178ft 124kts
28-Aug-20 07:56 48.145014 -116.710087 32 5712ft 126kts
28-Aug-20 07:57 48.172422 -116.682106 31 5621ft 127kts
28-Aug-20 07:58 48.201156 -116.652918 32 5444ft 122kts
28-Aug-20 07:59 48.229288 -116.627833 36 4800ft 114kts
28-Aug-20 08:00 48.257826 -116.600782 33 3496ft 128kts
28-Aug-20 08:01 48.285831 -116.572419 22 2428ft 102kts
28-Aug-20 08:02 48.300909 -116.560335 308 2138ft 8kts
28-Aug-20 08:03 48.300662 -116.561174 89 2138ft 0kts
28-Aug-20 08:04 48.300662 -116.561175 89 2138ft 0kts
28-Aug-20 08:05 48.300662 -116.561175 89 2138ft 0kts
28-Aug-20 08:06 48.300662 -116.561175 89 2138ft 0kts
28-Aug-20 08:07 48.300662 -116.561175 89 2138ft 0kts
28-Aug-20 08:08 48.300662 -116.561175 89 2138ft 0kts
28-Aug-20 08:09 48.300662 -116.561175 89 2138ft 0kts
28-Aug-20 08:10 48.300662 -116.561175 89 2138ft 0kts

Navigation Log

Ident Type
Flight plan parsing failed, navigation log unavailable